Time;durP1;ratioP1;P1;durP2;ratioP2;P2;SDS_P1;SDS_P2;PMS_P1;PMS_P2;Temp;Humidity;BMP_temperature;BMP_pressure;BME280_temperature;BME280_humidity;BME280_pressure;Samples;Min_cycle;Max_cycle;Signal;HPM_P1;HPM_P2
2022/04/20 00:00:08;;;;;;;1.27;1.27;;;4.20;81.70;;;;;;5010713;28;20188;-76
2022/04/20 00:02:33;;;;;;;1.33;1.00;;;4.20;81.60;;;;;;5009545;28;20176;-76
2022/04/20 00:04:59;;;;;;;1.00;1.00;;;4.20;82.00;;;;;;4996156;28;20208;-77
2022/04/20 00:07:25;;;;;;;1.13;1.13;;;4.20;82.20;;;;;;5002417;28;20191;-76
2022/04/20 00:09:50;;;;;;;2.80;1.20;;;4.20;82.20;;;;;;5011606;28;20200;-76
2022/04/20 00:12:16;;;;;;;1.07;1.07;;;4.20;82.40;;;;;;5007870;28;20188;-77
2022/04/20 00:14:42;;;;;;;1.50;1.40;;;4.10;82.10;;;;;;5004496;28;20184;-76
2022/04/20 00:17:08;;;;;;;1.40;1.40;;;4.10;82.30;;;;;;5011713;28;20191;-78
2022/04/20 00:19:33;;;;;;;1.77;1.67;;;4.10;82.30;;;;;;5011271;28;20255;-77
2022/04/20 00:21:59;;;;;;;3.17;1.30;;;4.10;82.20;;;;;;5011168;28;20223;-77
2022/04/20 00:24:25;;;;;;;1.40;1.30;;;4.10;82.60;;;;;;5012688;28;20181;-77
2022/04/20 00:26:50;;;;;;;1.90;1.70;;;4.10;82.90;;;;;;5012631;28;20892;-77
2022/04/20 00:29:16;;;;;;;2.57;1.60;;;4.10;83.00;;;;;;5009394;28;20243;-77
2022/04/20 00:31:42;;;;;;;1.67;1.37;;;4.10;82.90;;;;;;5008546;28;20247;-77
2022/04/20 00:34:07;;;;;;;2.03;1.90;;;4.10;83.00;;;;;;5008425;28;20260;-77
2022/04/20 00:36:33;;;;;;;1.50;1.40;;;4.00;82.90;;;;;;5010702;28;20185;-77
2022/04/20 00:38:59;;;;;;;2.20;1.80;;;4.00;83.30;;;;;;5003973;28;20189;-77
2022/04/20 00:41:25;;;;;;;2.00;1.90;;;4.00;83.50;;;;;;5011838;28;20332;-77
2022/04/20 00:43:51;;;;;;;1.57;1.57;;;4.00;83.60;;;;;;5010581;28;20181;-77
2022/04/20 00:46:19;;;;;;;1.67;1.67;;;3.90;82.90;;;;;;5005144;28;20207;-77
2022/04/20 00:48:47;;;;;;;1.87;1.77;;;3.90;83.70;;;;;;5009233;28;20242;-77
2022/04/20 00:51:13;;;;;;;1.20;1.20;;;3.90;83.60;;;;;;5007617;28;20188;-77
2022/04/20 00:53:38;;;;;;;2.03;1.57;;;3.80;83.50;;;;;;5007225;28;20187;-77
2022/04/20 00:56:04;;;;;;;1.60;1.50;;;3.80;83.70;;;;;;5013985;28;20187;-77
2022/04/20 00:58:30;;;;;;;2.87;1.97;;;3.80;83.90;;;;;;5009733;28;20177;-76
2022/04/20 01:00:56;;;;;;;1.33;1.23;;;3.80;83.90;;;;;;5014006;28;20232;-77
2022/04/20 01:03:22;;;;;;;1.10;1.10;;;3.70;83.80;;;;;;5007973;28;20655;-77
2022/04/20 01:05:47;;;;;;;1.67;1.57;;;3.70;83.90;;;;;;5006025;28;20200;-77
2022/04/20 01:08:13;;;;;;;2.03;1.77;;;3.70;83.80;;;;;;5008082;28;20682;-77
2022/04/20 01:10:39;;;;;;;1.43;1.30;;;3.70;84.40;;;;;;5006981;28;20227;-77
2022/04/20 01:13:05;;;;;;;1.80;1.70;;;3.60;83.90;;;;;;5006796;28;20257;-77
2022/04/20 01:15:31;;;;;;;1.70;1.60;;;3.60;84.30;;;;;;5008822;28;20189;-77
2022/04/20 01:17:57;;;;;;;2.23;1.97;;;3.60;85.10;;;;;;5008429;28;20205;-77
2022/04/20 01:20:23;;;;;;;1.93;1.30;;;3.60;85.20;;;;;;5007737;28;20203;-77
2022/04/20 01:22:48;;;;;;;1.07;1.07;;;3.60;84.60;;;;;;5005515;28;20450;-76
2022/04/20 01:25:14;;;;;;;2.00;1.77;;;3.50;84.90;;;;;;5011785;28;20184;-76
2022/04/20 01:27:41;;;;;;;1.23;1.23;;;3.50;85.50;;;;;;5013603;28;20268;-76
2022/04/20 01:30:08;;;;;;;1.87;1.77;;;3.60;86.30;;;;;;5006494;28;20614;-77
2022/04/20 01:32:33;;;;;;;2.90;1.70;;;3.50;85.50;;;;;;5008056;28;20271;-77
2022/04/20 01:34:59;;;;;;;1.80;1.70;;;3.50;85.20;;;;;;5009910;28;20698;-76
2022/04/20 01:37:25;;;;;;;2.40;1.67;;;3.50;85.30;;;;;;5003773;28;20260;-76
2022/04/20 01:39:50;;;;;;;1.60;1.50;;;3.50;85.40;;;;;;5013759;28;20401;-76
2022/04/20 01:42:16;;;;;;;1.67;1.40;;;3.50;85.40;;;;;;5012154;28;20258;-76
2022/04/20 01:44:42;;;;;;;2.17;1.73;;;3.50;85.60;;;;;;5011750;28;20244;-76
2022/04/20 01:47:07;;;;;;;1.83;1.73;;;3.50;85.50;;;;;;5014188;28;20686;-76
2022/04/20 01:49:33;;;;;;;1.30;1.20;;;3.50;85.40;;;;;;5009919;28;20186;-76
2022/04/20 01:51:59;;;;;;;1.57;1.57;;;3.50;85.40;;;;;;5015553;28;20188;-76
2022/04/20 01:54:24;;;;;;;2.20;1.50;;;3.40;85.30;;;;;;5012503;28;20181;-77
2022/04/20 01:56:52;;;;;;;1.53;1.43;;;3.40;85.40;;;;;;5013865;28;20587;-76
2022/04/20 01:59:18;;;;;;;1.73;1.57;;;3.40;85.40;;;;;;5014125;28;20215;-76
2022/04/20 02:04:28;;;;;;;1.60;1.60;;;3.40;85.80;;;;;;5015103;28;20321;-77
2022/04/20 02:06:55;;;;;;;1.27;1.27;;;3.40;86.00;;;;;;5006058;28;20188;-78
2022/04/20 02:09:21;;;;;;;1.10;1.10;;;3.50;86.70;;;;;;5014535;28;20206;-77
2022/04/20 02:11:46;;;;;;;1.33;1.30;;;3.50;86.50;;;;;;5017455;28;20192;-76
2022/04/20 02:14:12;;;;;;;1.37;1.33;;;3.50;87.80;;;;;;5013049;28;20281;-77
2022/04/20 02:16:38;;;;;;;0.97;0.97;;;3.50;87.20;;;;;;5009652;28;20204;-77
2022/04/20 02:19:04;;;;;;;1.60;1.53;;;3.50;86.90;;;;;;5010653;28;20211;-77
2022/04/20 02:21:30;;;;;;;1.70;1.60;;;3.50;87.50;;;;;;5012876;28;20729;-77
2022/04/20 02:23:56;;;;;;;1.90;1.77;;;3.50;87.00;;;;;;5013692;28;20185;-77
2022/04/20 02:26:22;;;;;;;1.57;1.47;;;3.40;86.90;;;;;;5015598;28;20181;-77
2022/04/20 02:28:48;;;;;;;1.63;1.63;;;3.40;87.10;;;;;;5013192;28;20180;-77
2022/04/20 02:31:14;;;;;;;2.73;2.23;;;3.40;87.70;;;;;;5013003;28;20598;-77
2022/04/20 02:33:40;;;;;;;1.83;1.70;;;3.40;87.60;;;;;;5011108;28;20204;-77
2022/04/20 02:36:06;;;;;;;1.53;1.50;;;3.30;86.80;;;;;;5007618;28;20707;-76
2022/04/20 02:38:33;;;;;;;1.73;1.63;;;3.30;86.80;;;;;;5008673;28;20192;-76
2022/04/20 02:40:59;;;;;;;1.70;1.60;;;3.30;86.50;;;;;;5011603;28;20212;-76
2022/04/20 02:43:25;;;;;;;1.73;1.43;;;3.30;86.50;;;;;;5012699;28;20242;-76
2022/04/20 02:45:51;;;;;;;2.33;2.13;;;3.30;85.90;;;;;;5012877;28;20267;-76
2022/04/20 02:48:16;;;;;;;2.60;2.07;;;3.30;86.10;;;;;;5015100;28;20177;-76
2022/04/20 02:50:43;;;;;;;2.00;1.90;;;3.30;86.60;;;;;;5016099;28;20184;-76
2022/04/20 02:53:09;;;;;;;1.93;1.83;;;3.20;86.20;;;;;;5010022;28;20185;-76
2022/04/20 02:55:34;;;;;;;1.83;1.83;;;3.20;86.00;;;;;;5015809;28;21733;-76
2022/04/20 02:58:00;;;;;;;2.10;2.00;;;3.20;85.80;;;;;;5011701;28;20177;-76
2022/04/20 03:00:26;;;;;;;1.17;1.17;;;3.20;85.50;;;;;;5008369;28;20185;-76
2022/04/20 03:02:51;;;;;;;1.40;1.30;;;3.20;85.70;;;;;;5009847;28;20189;-76
2022/04/20 03:05:17;;;;;;;1.97;1.87;;;3.10;85.40;;;;;;5011384;28;20217;-76
2022/04/20 03:07:43;;;;;;;2.63;2.43;;;3.10;85.90;;;;;;5014019;28;20263;-78
2022/04/20 03:10:09;;;;;;;1.60;1.50;;;3.10;86.30;;;;;;5008868;28;20659;-77
2022/04/20 03:12:35;;;;;;;2.73;2.37;;;3.10;86.70;;;;;;5011497;28;20188;-77
2022/04/20 03:15:01;;;;;;;2.73;2.53;;;3.10;86.70;;;;;;5007738;28;20184;-76
2022/04/20 03:17:27;;;;;;;2.60;2.43;;;3.10;86.20;;;;;;5008720;28;20180;-77
2022/04/20 03:19:53;;;;;;;2.63;2.33;;;3.10;86.30;;;;;;5007237;28;20691;-77
2022/04/20 03:22:18;;;;;;;2.93;2.33;;;3.10;86.70;;;;;;5014085;28;20222;-77
2022/04/20 03:24:44;;;;;;;2.57;2.17;;;3.10;87.10;;;;;;5014031;28;20184;-76
2022/04/20 03:27:10;;;;;;;2.30;2.20;;;3.10;87.40;;;;;;5014973;28;20184;-76
2022/04/20 03:29:36;;;;;;;1.77;1.77;;;3.10;87.90;;;;;;5009044;28;20188;-76
2022/04/20 03:32:09;;;;;;;4.27;2.30;;;3.00;87.20;;;;;;5011536;28;20196;-76
2022/04/20 03:34:35;;;;;;;2.53;2.43;;;3.10;87.70;;;;;;5008397;28;20276;-76
2022/04/20 03:37:01;;;;;;;5.10;3.07;;;3.10;88.20;;;;;;5011993;28;20181;-77
2022/04/20 03:39:27;;;;;;;3.83;2.93;;;3.00;88.10;;;;;;5007502;28;20184;-77
2022/04/20 03:41:53;;;;;;;2.37;2.23;;;3.00;88.00;;;;;;5015621;28;20224;-77
2022/04/20 03:44:19;;;;;;;2.37;2.27;;;3.00;87.80;;;;;;5016895;28;20265;-77
2022/04/20 03:46:45;;;;;;;2.33;2.20;;;3.00;88.80;;;;;;5011529;28;20185;-77
2022/04/20 03:49:11;;;;;;;2.23;2.13;;;3.10;88.20;;;;;;5018819;28;20195;-77
2022/04/20 03:51:37;;;;;;;3.47;2.67;;;3.10;88.00;;;;;;5010290;28;20581;-77
2022/04/20 03:54:03;;;;;;;2.27;1.83;;;3.10;88.50;;;;;;5009680;28;20181;-77
2022/04/20 03:57:03;;;;;;;1.73;1.67;;;3.10;88.50;;;;;;5011384;28;20920;-77
2022/04/20 03:59:15;;;;;;;2.13;1.00;;;;;;;;;;5011817;28;20185;-76
2022/04/20 04:01:41;;;;;;;1.53;1.53;;;;;;;;;;5008844;28;20722;-76
2022/04/20 04:04:07;;;;;;;1.57;1.40;;;;;;;;;;5011695;28;20595;-76
2022/04/20 04:06:33;;;;;;;1.37;1.37;;;;;;;;;;5010083;28;21684;-78
2022/04/20 04:08:59;;;;;;;3.50;1.57;;;3.10;88.70;;;;;;5006172;28;20641;-76
2022/04/20 04:11:25;;;;;;;1.10;0.97;;;3.10;88.70;;;;;;5007836;28;20188;-78
2022/04/20 04:13:51;;;;;;;1.63;1.53;;;;;;;;;;5006620;28;20682;-78
2022/04/20 04:16:17;;;;;;;1.00;1.00;;;;;;;;;;5007893;28;20215;-76
2022/04/20 04:18:43;;;;;;;1.50;1.43;;;;;;;;;;5008352;28;20193;-77
2022/04/20 04:21:09;;;;;;;1.23;1.20;;;;;;;;;;5010402;28;20670;-77
2022/04/20 04:23:36;;;;;;;1.17;1.17;;;;;;;;;;5011446;28;20216;-77
2022/04/20 04:26:02;;;;;;;1.37;1.30;;;;;;;;;;5011891;28;20254;-77
2022/04/20 04:28:28;;;;;;;1.03;1.03;;;;;;;;;;5007644;28;20264;-76
2022/04/20 04:30:54;;;;;;;1.83;1.73;;;;;;;;;;5010027;28;20192;-77
2022/04/20 04:33:20;;;;;;;1.00;1.00;;;;;;;;;;5008014;28;20177;-77
2022/04/20 04:35:46;;;;;;;1.20;1.10;;;;;;;;;;5007433;28;20185;-77
2022/04/20 04:38:14;;;;;;;1.30;1.30;;;;;;;;;;5008436;28;20181;-77
2022/04/20 04:40:41;;;;;;;1.60;1.50;;;;;;;;;;5010567;28;20208;-76
2022/04/20 04:43:07;;;;;;;1.63;1.53;;;;;;;;;;5012119;28;20184;-77
2022/04/20 04:51:09;;;;;;;1.00;0.80;;;3.70;88.50;;;;;;5011472;28;20200;-77
2022/04/20 04:53:36;;;;;;;2.27;1.20;;;3.70;88.50;;;;;;5011134;28;20195;-76
2022/04/20 04:56:01;;;;;;;2.73;1.57;;;3.80;88.70;;;;;;5011956;28;20669;-77
2022/04/20 04:58:27;;;;;;;4.63;2.93;;;3.80;88.60;;;;;;5003843;28;20279;-77
2022/04/20 05:00:53;;;;;;;2.97;2.53;;;3.80;88.20;;;;;;5004179;28;20217;-78
2022/04/20 05:03:19;;;;;;;2.90;2.70;;;3.90;87.90;;;;;;5007059;28;20220;-78
2022/04/20 05:05:46;;;;;;;3.10;2.80;;;3.90;87.70;;;;;;5007940;28;20216;-77
2022/04/20 05:08:11;;;;;;;3.53;3.23;;;4.00;87.80;;;;;;5005548;28;20250;-77
2022/04/20 05:10:37;;;;;;;2.50;2.30;;;4.10;88.00;;;;;;5008334;28;20184;-77
2022/04/20 05:13:07;;;;;;;2.23;2.10;;;4.20;87.80;;;;;;5003264;28;20199;-77
2022/04/20 05:15:33;;;;;;;2.37;1.83;;;4.30;87.40;;;;;;5006693;28;20203;-77
2022/04/20 05:18:00;;;;;;;1.63;1.53;;;4.30;87.40;;;;;;5004576;28;20188;-77
2022/04/20 05:20:26;;;;;;;2.50;1.83;;;4.40;86.80;;;;;;5006979;28;21006;-78
2022/04/20 05:22:52;;;;;;;2.20;2.00;;;4.40;86.80;;;;;;5008645;28;20569;-78
2022/04/20 05:25:18;;;;;;;1.70;1.60;;;4.50;87.10;;;;;;5013779;28;20188;-78
2022/04/20 05:27:47;;;;;;;2.20;1.83;;;4.60;86.80;;;;;;5005222;28;20226;-78
2022/04/20 05:30:14;;;;;;;1.60;1.50;;;4.70;86.60;;;;;;5008416;28;20199;-75
2022/04/20 05:32:41;;;;;;;1.80;1.70;;;4.70;86.40;;;;;;5010836;28;20546;-75
2022/04/20 05:35:07;;;;;;;2.40;1.60;;;4.70;86.40;;;;;;5010426;28;20184;-75
2022/04/20 05:43:02;;;;;;;2.23;2.07;;;4.90;86.10;;;;;;5012448;28;20215;-76
2022/04/20 05:45:28;;;;;;;2.37;2.27;;;;;;;;;;5012142;28;20185;-76
2022/04/20 05:47:54;;;;;;;2.73;2.53;;;;;;;;;;5010697;28;20212;-78
2022/04/20 05:50:20;;;;;;;2.00;1.90;;;5.10;85.30;;;;;;5014195;28;20647;-76
2022/04/20 05:52:45;;;;;;;2.50;2.40;;;5.10;85.00;;;;;;5013933;28;20225;-75
2022/04/20 05:55:11;;;;;;;4.27;2.97;;;5.10;85.20;;;;;;5015429;28;20287;-76
2022/04/20 05:57:37;;;;;;;2.63;2.43;;;5.10;85.40;;;;;;5013251;28;20216;-76
2022/04/20 06:00:04;;;;;;;3.67;3.47;;;5.10;84.90;;;;;;5015437;28;20215;-75
2022/04/20 06:02:33;;;;;;;2.53;2.33;;;5.10;84.60;;;;;;5015549;28;20220;-76
2022/04/20 06:05:02;;;;;;;3.63;3.30;;;5.10;84.50;;;;;;5010553;28;20208;-76
2022/04/20 06:07:29;;;;;;;3.70;3.37;;;5.10;84.50;;;;;;5013076;28;20219;-75
2022/04/20 06:09:55;;;;;;;3.40;2.70;;;5.10;84.80;;;;;;5013435;28;20179;-75
2022/04/20 06:12:21;;;;;;;3.00;2.77;;;5.10;84.70;;;;;;5010779;28;20674;-76
2022/04/20 06:14:47;;;;;;;4.43;4.07;;;5.10;84.40;;;;;;5016127;28;20196;-75
2022/04/20 06:17:13;;;;;;;4.67;4.20;;;5.10;85.30;;;;;;5012514;28;20189;-75
2022/04/20 06:19:39;;;;;;;4.70;4.30;;;5.20;84.90;;;;;;5010152;28;20173;-74
2022/04/20 06:22:04;;;;;;;2.80;2.53;;;5.20;85.00;;;;;;5011681;28;20221;-74
2022/04/20 06:24:30;;;;;;;3.97;3.57;;;5.20;84.60;;;;;;5015569;28;20181;-76
2022/04/20 06:26:56;;;;;;;2.70;2.50;;;5.20;85.40;;;;;;5012881;28;20189;-76
2022/04/20 06:29:22;;;;;;;2.27;2.17;;;5.30;86.10;;;;;;5009355;28;20573;-76
2022/04/20 06:31:48;;;;;;;2.17;2.03;;;5.30;85.70;;;;;;5011338;28;20869;-76
2022/04/20 06:34:13;;;;;;;2.70;2.50;;;5.30;85.90;;;;;;5012367;28;20183;-73
2022/04/20 06:36:39;;;;;;;1.73;1.63;;;;;;;;;;5014811;28;20630;-76
2022/04/20 06:39:05;;;;;;;1.90;1.57;;;5.40;86.10;;;;;;5009838;28;20192;-75
2022/04/20 06:41:31;;;;;;;2.43;2.30;;;5.40;85.90;;;;;;5017681;28;20212;-75
2022/04/20 06:43:57;;;;;;;1.57;1.47;;;5.40;85.60;;;;;;5011122;28;20184;-77
2022/04/20 06:46:23;;;;;;;2.70;2.50;;;5.40;85.50;;;;;;5010081;28;20193;-75
2022/04/20 06:48:49;;;;;;;2.60;2.40;;;5.40;86.40;;;;;;5015528;28;20199;-75
2022/04/20 06:51:14;;;;;;;3.40;2.33;;;5.40;85.90;;;;;;5013430;28;20188;-75
2022/04/20 06:59:14;;;;;;;2.97;1.83;;;5.10;85.80;;;;;;5001449;28;20770;-75
2022/04/20 07:01:39;;;;;;;4.43;1.90;;;5.00;85.70;;;;;;4999914;28;20308;-76
2022/04/20 07:04:05;;;;;;;2.03;1.57;;;5.00;85.90;;;;;;5000761;28;20209;-76
2022/04/20 07:06:31;;;;;;;2.50;2.40;;;5.00;87.00;;;;;;4998043;28;20199;-76
2022/04/20 07:08:58;;;;;;;5.53;3.00;;;5.00;87.10;;;;;;4998855;28;20217;-74
2022/04/20 07:11:25;;;;;;;2.43;2.33;;;5.10;87.40;;;;;;4999495;28;20223;-73
2022/04/20 07:13:51;;;;;;;2.47;2.27;;;5.10;86.60;;;;;;4982462;28;20191;-74
2022/04/20 07:16:17;;;;;;;2.73;2.47;;;5.10;86.70;;;;;;5000205;28;20585;-76
2022/04/20 07:18:42;;;;;;;2.97;2.77;;;5.00;86.50;;;;;;4994061;28;20721;-74
2022/04/20 07:21:08;;;;;;;2.30;1.93;;;5.00;87.00;;;;;;4999579;28;20217;-74
2022/04/20 07:23:34;;;;;;;2.50;2.33;;;5.10;86.30;;;;;;4997930;28;20637;-74
2022/04/20 07:25:59;;;;;;;2.87;2.63;;;5.10;88.30;;;;;;4997240;28;20231;-74
2022/04/20 07:28:25;;;;;;;3.43;3.20;;;5.20;88.00;;;;;;4998273;28;20193;-74
2022/04/20 07:30:51;;;;;;;2.37;2.27;;;5.20;87.90;;;;;;4993137;28;20236;-74
2022/04/20 07:33:17;;;;;;;3.27;2.93;;;5.20;88.50;;;;;;4994688;28;20257;-74
2022/04/20 07:35:46;;;;;;;2.60;2.37;;;5.20;88.80;;;;;;4998360;28;20193;-74
2022/04/20 07:38:12;;;;;;;2.20;2.03;;;5.30;88.10;;;;;;5008390;28;20572;-75
2022/04/20 07:40:38;;;;;;;2.40;2.20;;;5.40;89.50;;;;;;5008627;28;20183;-74
2022/04/20 07:43:04;;;;;;;3.50;2.70;;;5.40;89.50;;;;;;5008905;28;20184;-74
2022/04/20 07:45:30;;;;;;;3.70;2.87;;;5.40;88.80;;;;;;5013485;28;20180;-74
2022/04/20 07:47:57;;;;;;;2.50;2.33;;;5.40;88.80;;;;;;5012592;28;20184;-73
2022/04/20 07:50:24;;;;;;;2.57;2.37;;;5.40;88.50;;;;;;5011503;28;20206;-73
2022/04/20 07:52:55;;;;;;;3.63;3.20;;;5.30;88.20;;;;;;5008018;28;20188;-72
2022/04/20 07:55:31;;;;;;;17.50;2.63;;;5.40;88.50;;;;;;5013401;28;20193;-73
2022/04/20 07:58:00;;;;;;;2.73;2.60;;;5.30;88.10;;;;;;5015530;28;20208;-73
2022/04/20 08:00:27;;;;;;;3.10;2.77;;;5.40;88.10;;;;;;5011037;28;20181;-75
2022/04/20 08:03:15;;;;;;;3.23;2.47;;;5.40;88.10;;;;;;5011387;28;20692;-73
2022/04/20 08:05:42;;;;;;;2.70;2.50;;;5.50;89.30;;;;;;5012435;28;20200;-75
2022/04/20 08:08:09;;;;;;;3.60;2.40;;;5.50;89.30;;;;;;5015779;28;20184;-74
2022/04/20 08:10:36;;;;;;;3.13;2.90;;;5.50;88.30;;;;;;5011824;28;20191;-75
2022/04/20 08:14:09;;;;;;;3.30;3.00;;;;;;;;;;5013904;28;20188;-75
2022/04/20 08:15:48;;;;;;;3.17;2.87;;;5.60;88.70;;;;;;5011695;28;20283;-73
2022/04/20 08:18:14;;;;;;;2.70;2.37;;;5.70;88.10;;;;;;5010433;28;20673;-76
2022/04/20 08:20:40;;;;;;;3.13;2.27;;;;;;;;;;5011233;28;20240;-75
2022/04/20 08:23:06;;;;;;;4.10;2.50;;;;;;;;;;5010841;28;20181;-75
2022/04/20 08:25:31;;;;;;;2.70;2.50;;;6.00;87.90;;;;;;5013541;28;20189;-75
2022/04/20 08:27:57;;;;;;;2.93;2.73;;;;;;;;;;5016109;28;20185;-75
2022/04/20 08:30:23;;;;;;;2.30;2.20;;;;;;;;;;5007374;28;20300;-75
2022/04/20 08:32:49;;;;;;;2.30;2.10;;;;;;;;;;5009511;28;20211;-75
2022/04/20 08:35:15;;;;;;;2.50;2.40;;;6.40;87.30;;;;;;5011122;28;20188;-75
2022/04/20 08:37:41;;;;;;;3.70;3.40;;;6.50;87.20;;;;;;5009893;28;20188;-73
2022/04/20 08:40:07;;;;;;;3.90;3.43;;;6.60;87.10;;;;;;5011174;28;20185;-75
2022/04/20 08:42:34;;;;;;;3.43;3.13;;;6.60;86.70;;;;;;5004251;28;20216;-74
2022/04/20 08:45:03;;;;;;;6.70;3.67;;;6.70;86.90;;;;;;5010199;28;20204;-74
2022/04/20 08:47:35;;;;;;;5.20;4.57;;;6.70;87.20;;;;;;5008039;28;20181;-75
2022/04/20 08:50:01;;;;;;;5.40;4.20;;;6.70;86.40;;;;;;5004208;28;20226;-76
2022/04/20 08:52:37;;;;;;;8.57;5.27;;;6.80;86.80;;;;;;5008860;28;20239;-76
2022/04/20 08:55:23;;;;;;;6.87;3.80;;;6.80;86.50;;;;;;5009207;28;20208;-75
2022/04/20 08:57:52;;;;;;;8.90;4.83;;;6.80;86.20;;;;;;5010215;28;20200;-75
2022/04/20 09:00:23;;;;;;;10.40;5.40;;;6.90;86.90;;;;;;5009933;28;20173;-75
2022/04/20 09:03:00;;;;;;;5.43;4.87;;;6.90;87.50;;;;;;5011357;28;20221;-75
2022/04/20 09:05:29;;;;;;;4.40;3.77;;;6.90;86.80;;;;;;5005277;28;20682;-76
2022/04/20 09:07:55;;;;;;;4.77;3.50;;;6.90;86.60;;;;;;5004545;28;20264;-73
2022/04/20 09:10:21;;;;;;;3.63;3.33;;;6.90;86.60;;;;;;5005412;28;20259;-75
2022/04/20 09:13:11;;;;;;;3.67;3.40;;;6.90;87.00;;;;;;5005647;28;20844;-74
2022/04/20 09:15:39;;;;;;;4.17;3.33;;;6.90;87.40;;;;;;5002745;28;20208;-74
2022/04/20 09:18:06;;;;;;;3.83;3.53;;;6.80;86.80;;;;;;5004448;28;20185;-74
2022/04/20 09:20:34;;;;;;;5.77;3.60;;;6.90;86.70;;;;;;5008265;28;20659;-75
2022/04/20 09:23:01;;;;;;;2.97;2.80;;;7.00;87.90;;;;;;5006043;28;20205;-76
2022/04/20 09:25:33;;;;;;;3.43;3.13;;;7.00;87.60;;;;;;5007724;28;20189;-74
2022/04/20 09:28:01;;;;;;;3.97;3.37;;;7.10;87.60;;;;;;5002636;28;20682;-74
2022/04/20 09:30:33;;;;;;;2.90;2.47;;;7.10;87.40;;;;;;5008854;28;20291;-74
2022/04/20 09:32:58;;;;;;;6.37;3.13;;;7.20;87.40;;;;;;5005937;28;20193;-75
2022/04/20 09:35:24;;;;;;;5.13;3.63;;;7.30;87.90;;;;;;5003785;28;20191;-74
2022/04/20 09:38:05;;;;;;;3.97;3.50;;;7.30;86.50;;;;;;5008985;28;20650;-74
2022/04/20 09:40:33;;;;;;;4.43;3.47;;;7.30;87.20;;;;;;5004369;28;20181;-75
2022/04/20 09:43:06;;;;;;;4.17;3.40;;;7.30;87.20;;;;;;5008954;28;20184;-75
2022/04/20 09:45:33;;;;;;;5.73;3.90;;;7.30;87.20;;;;;;5009514;28;20192;-76
2022/04/20 09:51:13;;;;;;;2.97;2.83;;;7.20;87.20;;;;;;5009287;28;20218;-76
2022/04/20 09:53:40;;;;;;;6.87;3.70;;;7.30;86.90;;;;;;5004861;28;20729;-76
2022/04/20 09:56:25;;;;;;;6.17;4.70;;;7.30;86.90;;;;;;5006494;28;20215;-74
2022/04/20 09:58:58;;;;;;;3.13;2.93;;;7.30;87.00;;;;;;5004413;28;20836;-74
2022/04/20 10:01:34;;;;;;;3.07;2.87;;;7.30;86.70;;;;;;5011023;28;20212;-74
2022/04/20 10:04:02;;;;;;;3.40;3.10;;;7.40;86.40;;;;;;5009627;28;20910;-75
2022/04/20 10:06:28;;;;;;;6.00;3.63;;;;;;;;;;5008447;28;20184;-74
2022/04/20 10:08:54;;;;;;;3.40;3.10;;;7.50;86.20;;;;;;5011536;28;20189;-75
2022/04/20 10:11:24;;;;;;;2.90;2.37;;;7.60;86.30;;;;;;5012794;28;20184;-75
2022/04/20 10:16:05;;;;;;;4.07;3.17;;;7.70;86.20;;;;;;5010894;28;20185;-75
2022/04/20 10:16:52;;;;;;;3.07;2.87;;;7.90;86.40;;;;;;5010899;28;20276;-75
2022/04/20 10:19:28;;;;;;;3.10;2.87;;;8.00;87.10;;;;;;5012095;28;20206;-75
2022/04/20 10:21:55;;;;;;;2.20;2.13;;;8.00;86.70;;;;;;5006701;28;20294;-74
2022/04/20 10:24:37;;;;;;;3.37;2.83;;;8.10;86.90;;;;;;5008589;28;20180;-75
2022/04/20 10:27:09;;;;;;;1.77;1.77;;;8.10;86.40;;;;;;5011804;28;20185;-74
2022/04/20 10:29:46;;;;;;;4.37;3.93;;;8.00;86.00;;;;;;5016971;28;20187;-75
2022/04/20 10:32:22;;;;;;;4.87;3.37;;;8.00;85.80;;;;;;5011750;28;20852;-75
2022/04/20 10:34:51;;;;;;;3.27;2.97;;;8.00;86.30;;;;;;5008705;28;20212;-75
2022/04/20 10:37:20;;;;;;;2.77;2.50;;;8.10;87.10;;;;;;5005599;28;20271;-75
2022/04/20 10:39:47;;;;;;;2.43;2.23;;;8.10;86.40;;;;;;5009953;28;20710;-76
2022/04/20 10:42:16;;;;;;;2.33;2.23;;;;;;;;;;5010421;28;20244;-76
2022/04/20 10:44:55;;;;;;;1.70;1.60;;;8.10;86.80;;;;;;5005629;28;20185;-75
2022/04/20 10:47:32;;;;;;;1.37;1.37;;;8.20;87.40;;;;;;5009568;28;20194;-75
2022/04/20 10:50:17;;;;;;;1.67;1.57;;;8.20;86.90;;;;;;5008368;28;20185;-75
2022/04/20 10:52:52;;;;;;;1.73;1.07;;;8.20;86.80;;;;;;5010362;28;20267;-74
2022/04/20 10:55:22;;;;;;;1.50;1.40;;;8.20;86.60;;;;;;5010900;28;20176;-74
2022/04/20 10:57:54;;;;;;;1.03;1.03;;;8.20;86.40;;;;;;5008237;28;20413;-75
2022/04/20 11:00:20;;;;;;;1.10;1.10;;;;;;;;;;5008686;28;20693;-75
2022/04/20 11:03:01;;;;;;;1.00;1.00;;;8.30;86.30;;;;;;5008455;28;20224;-77
2022/04/20 11:05:27;;;;;;;1.50;1.40;;;8.30;86.60;;;;;;5008317;28;20193;-74
2022/04/20 11:08:11;;;;;;;1.20;0.93;;;8.30;86.70;;;;;;5009567;28;20185;-74
2022/04/20 11:19:05;;;;;;;0.93;0.93;;;;;;;;;;5010708;28;20206;-73
2022/04/20 11:21:32;;;;;;;0.80;0.80;;;8.30;86.40;;;;;;5010197;28;20729;-74
2022/04/20 11:24:07;;;;;;;1.20;1.20;;;8.20;86.50;;;;;;5012465;28;20215;-74
2022/04/20 11:26:54;;;;;;;0.90;0.90;;;8.20;85.90;;;;;;5014116;28;20188;-73
2022/04/20 11:29:22;;;;;;;1.37;1.27;;;8.20;85.80;;;;;;5011190;28;20267;-74
2022/04/20 11:31:48;;;;;;;0.97;0.97;;;;;;;;;;5014703;28;20208;-74
2022/04/20 11:34:17;;;;;;;1.10;1.10;;;8.10;85.40;;;;;;5010837;28;20181;-74
2022/04/20 11:36:48;;;;;;;0.93;0.93;;;8.10;85.60;;;;;;5012054;28;20185;-73
2022/04/20 11:39:16;;;;;;;0.93;0.93;;;8.10;85.40;;;;;;5011901;28;20176;-74
2022/04/20 11:41:46;;;;;;;1.00;1.00;;;8.10;85.10;;;;;;5011499;28;20231;-74
2022/04/20 11:44:26;;;;;;;1.20;1.07;;;8.10;85.20;;;;;;5010874;28;20183;-74
2022/04/20 11:46:58;;;;;;;1.53;1.43;;;8.10;86.30;;;;;;5014141;28;20275;-74
2022/04/20 11:49:30;;;;;;;6.60;3.80;;;8.10;86.60;;;;;;5014333;28;20433;-74
2022/04/20 11:51:58;;;;;;;5.63;4.33;;;8.10;85.80;;;;;;5008477;28;20255;-74
2022/04/20 11:54:25;;;;;;;5.00;4.00;;;8.00;85.80;;;;;;5008367;28;20181;-74
2022/04/20 11:56:51;;;;;;;3.67;3.37;;;8.00;86.40;;;;;;5005228;28;20849;-74
2022/04/20 11:59:28;;;;;;;9.63;7.30;;;7.90;86.00;;;;;;5009358;28;20196;-74
2022/04/20 12:01:55;;;;;;;10.50;7.50;;;7.80;85.60;;;;;;5007222;28;20223;-74
2022/04/20 12:04:23;;;;;;;11.30;7.27;;;7.70;85.70;;;;;;5014401;28;20626;-74
2022/04/20 12:06:49;;;;;;;7.93;7.10;;;;;;;;;;5008047;28;20268;-73
2022/04/20 12:09:18;;;;;;;8.63;5.77;;;6.90;87.10;;;;;;5007412;28;20181;-74
2022/04/20 12:11:44;;;;;;;5.77;5.23;;;6.50;88.00;;;;;;5012281;28;20245;-73
2022/04/20 12:14:11;;;;;;;5.00;4.57;;;6.20;88.90;;;;;;5011250;28;20184;-73
2022/04/20 12:16:36;;;;;;;4.83;3.83;;;5.90;89.50;;;;;;5012241;28;20238;-73
2022/04/20 12:19:03;;;;;;;6.90;4.70;;;5.80;89.30;;;;;;5010242;28;20200;-73
2022/04/20 12:21:40;;;;;;;5.17;4.33;;;5.50;88.80;;;;;;5015567;28;20212;-74
2022/04/20 12:24:22;;;;;;;4.00;3.70;;;5.30;89.40;;;;;;5009644;28;20181;-73
2022/04/20 12:26:52;;;;;;;4.13;3.50;;;5.10;89.90;;;;;;5008542;28;20223;-74
2022/04/20 12:29:23;;;;;;;5.90;4.03;;;4.90;90.20;;;;;;5007686;28;20643;-74
2022/04/20 12:31:51;;;;;;;5.60;3.80;;;4.60;90.80;;;;;;5009161;28;20192;-74
2022/04/20 12:34:19;;;;;;;5.47;2.43;;;4.50;90.80;;;;;;5005274;28;20207;-74
2022/04/20 12:36:55;;;;;;;3.53;2.93;;;4.40;91.50;;;;;;5007732;28;20177;-74
2022/04/20 12:39:29;;;;;;;3.47;3.20;;;4.30;91.40;;;;;;5008785;28;20186;-74
2022/04/20 12:41:57;;;;;;;5.23;2.90;;;4.20;91.90;;;;;;5007218;28;20200;-74
2022/04/20 12:44:36;;;;;;;3.13;2.93;;;4.00;92.20;;;;;;5011708;28;20216;-73
2022/04/20 12:47:11;;;;;;;4.53;3.20;;;3.90;92.30;;;;;;5007034;28;20180;-75
2022/04/20 12:49:44;;;;;;;3.27;3.17;;;3.80;92.30;;;;;;5012253;28;20176;-75
2022/04/20 12:52:16;;;;;;;4.77;3.60;;;3.70;92.60;;;;;;5008158;28;20180;-75
2022/04/20 12:55:04;;;;;;;2.83;2.63;;;3.70;92.60;;;;;;5010024;28;20204;-75
2022/04/20 13:03:07;;;;;;;9.80;3.17;;;;;;;;;;5010381;28;20823;-75
2022/04/20 13:05:38;;;;;;;2.27;2.17;;;3.40;93.30;;;;;;5009632;28;20246;-75
2022/04/20 13:08:05;;;;;;;3.77;2.80;;;3.30;93.70;;;;;;5007304;28;20184;-75
2022/04/20 13:10:32;;;;;;;18.10;5.40;;;;;;;;;;5010014;28;20176;-74
2022/04/20 13:12:59;;;;;;;5.80;3.17;;;3.40;93.40;;;;;;5015211;28;20675;-75
2022/04/20 13:15:25;;;;;;;1.47;1.40;;;3.20;94.40;;;;;;5009152;28;20192;-75
2022/04/20 13:17:52;;;;;;;1.17;1.10;;;3.10;95.10;;;;;;5009759;28;20185;-75
2022/04/20 13:20:19;;;;;;;2.80;2.40;;;3.10;95.00;;;;;;5006182;28;20676;-75
2022/04/20 13:22:47;;;;;;;1.20;1.13;;;3.00;95.60;;;;;;5003543;28;20243;-77
2022/04/20 13:27:57;;;;;;;3.23;2.83;;;3.10;94.90;;;;;;5003817;28;20255;-76
2022/04/20 13:30:25;;;;;;;3.03;2.83;;;3.20;95.10;;;;;;5002247;28;20193;-73
2022/04/20 13:32:55;;;;;;;2.13;1.90;;;3.10;95.30;;;;;;5008520;28;20314;-74
2022/04/20 13:35:22;;;;;;;3.53;3.20;;;3.20;95.50;;;;;;5008221;28;20671;-75
2022/04/20 13:37:48;;;;;;;3.47;2.03;;;;;;;;;;5005855;28;20192;-74
2022/04/20 13:40:14;;;;;;;2.03;1.93;;;3.10;95.60;;;;;;5005270;28;20185;-76
2022/04/20 13:42:40;;;;;;;2.70;2.17;;;3.10;95.60;;;;;;5017358;28;20765;-75
2022/04/20 13:45:06;;;;;;;2.83;1.53;;;3.00;96.10;;;;;;5009493;28;20187;-75
2022/04/20 13:47:33;;;;;;;4.53;2.27;;;3.00;95.90;;;;;;5012045;28;20185;-75
2022/04/20 13:50:00;;;;;;;2.40;2.10;;;3.00;96.00;;;;;;5008026;28;20201;-75